Time;durP1;ratioP1;P1;durP2;ratioP2;P2;SDS_P1;SDS_P2;PMS_P1;PMS_P2;Temp;Humidity;BMP_temperature;BMP_pressure;BME280_temperature;BME280_humidity;BME280_pressure;Samples;Min_cycle;Max_cycle;Signal;HPM_P1;HPM_P2
2023/08/08 00:01:23;;;;;;;0.60;0.50;;;21.30;68.20;;;;;;5026532;28;20079;-78
2023/08/08 00:03:48;;;;;;;0.55;0.40;;;21.30;67.50;;;;;;5026717;28;20092;-78
2023/08/08 00:06:14;;;;;;;1.48;0.28;;;21.30;67.40;;;;;;5025408;28;20034;-78
2023/08/08 00:08:39;;;;;;;0.57;0.40;;;21.30;67.40;;;;;;5026896;28;20077;-78
2023/08/08 00:11:05;;;;;;;0.52;0.50;;;21.30;67.50;;;;;;5024711;28;20557;-78
2023/08/08 00:13:31;;;;;;;0.47;0.43;;;21.30;67.50;;;;;;5024771;28;20041;-78
2023/08/08 00:15:56;;;;;;;0.65;0.30;;;21.30;67.50;;;;;;5025831;28;20065;-78
2023/08/08 00:18:22;;;;;;;0.50;0.50;;;21.30;67.40;;;;;;5026203;28;20095;-78
2023/08/08 00:20:48;;;;;;;0.55;0.30;;;21.30;67.40;;;;;;5027603;28;20123;-78
2023/08/08 00:23:13;;;;;;;0.50;0.40;;;21.30;67.40;;;;;;5025625;28;20037;-78
2023/08/08 00:25:39;;;;;;;0.40;0.40;;;21.30;67.40;;;;;;5025561;28;20534;-78
2023/08/08 00:28:05;;;;;;;0.50;0.50;;;21.30;67.50;;;;;;5025652;28;20049;-77
2023/08/08 00:30:30;;;;;;;0.45;0.40;;;21.30;67.40;;;;;;5025056;28;20057;-78
2023/08/08 00:32:56;;;;;;;0.20;0.20;;;21.30;67.40;;;;;;5010747;28;20128;-78
2023/08/08 00:35:21;;;;;;;1.48;0.35;;;21.30;67.50;;;;;;5025998;28;20083;-78
2023/08/08 00:37:48;;;;;;;1.35;0.70;;;21.30;67.50;;;;;;5024975;28;20427;-78
2023/08/08 00:40:13;;;;;;;0.40;0.40;;;21.30;67.50;;;;;;5024610;28;20586;-78
2023/08/08 00:42:39;;;;;;;0.98;0.30;;;21.30;67.50;;;;;;5025174;28;20129;-78
2023/08/08 00:45:05;;;;;;;0.70;0.50;;;21.30;67.50;;;;;;5025871;28;20041;-77
2023/08/08 00:47:32;;;;;;;0.50;0.50;;;21.30;67.50;;;;;;5006572;28;20069;-78
2023/08/08 00:49:58;;;;;;;0.70;0.40;;;21.30;67.30;;;;;;5026169;28;20091;-78
2023/08/08 00:52:25;;;;;;;0.60;0.40;;;21.30;67.40;;;;;;5009386;28;20049;-78
2023/08/08 00:54:51;;;;;;;0.82;0.50;;;21.30;67.30;;;;;;5025733;28;20033;-78
2023/08/08 00:57:16;;;;;;;0.50;0.32;;;21.30;67.20;;;;;;5024558;28;20069;-78
2023/08/08 00:59:42;;;;;;;1.42;0.60;;;21.30;67.20;;;;;;5026101;28;20046;-78
2023/08/08 01:02:07;;;;;;;0.55;0.50;;;21.30;67.30;;;;;;5007111;28;20099;-77
2023/08/08 01:04:33;;;;;;;0.30;0.30;;;21.30;67.30;;;;;;5026069;28;20571;-78
2023/08/08 01:07:17;;;;;;;1.70;0.60;;;21.30;67.10;;;;;;5007582;28;20045;-78
2023/08/08 01:09:55;;;;;;;0.77;0.40;;;21.30;66.90;;;;;;5023584;28;20039;-78
2023/08/08 01:12:22;;;;;;;0.70;0.55;;;21.20;66.90;;;;;;4991996;28;20515;-78
2023/08/08 01:14:47;;;;;;;0.47;0.35;;;21.20;67.00;;;;;;5008295;28;20038;-78
2023/08/08 01:17:13;;;;;;;2.75;1.17;;;21.30;67.10;;;;;;5008765;28;20084;-78
2023/08/08 01:19:38;;;;;;;0.90;0.70;;;21.20;67.20;;;;;;5025203;28;20538;-78
2023/08/08 01:22:10;;;;;;;0.32;0.30;;;21.30;67.10;;;;;;4990052;28;20045;-78
2023/08/08 01:24:37;;;;;;;0.50;0.30;;;21.30;67.10;;;;;;5022656;28;20052;-78
2023/08/08 01:27:03;;;;;;;0.45;0.30;;;21.20;66.90;;;;;;5024179;28;20079;-78
2023/08/08 01:29:28;;;;;;;0.75;0.40;;;21.20;66.90;;;;;;5025069;28;20049;-78
2023/08/08 01:31:54;;;;;;;0.50;0.30;;;21.20;66.90;;;;;;5025272;28;20038;-78
2023/08/08 01:34:20;;;;;;;0.60;0.50;;;21.20;66.80;;;;;;5024381;28;20042;-77
2023/08/08 01:36:50;;;;;;;0.75;0.57;;;21.20;67.00;;;;;;4989841;28;20076;-78
2023/08/08 01:39:17;;;;;;;0.45;0.30;;;21.30;67.10;;;;;;5033138;28;20052;-78
2023/08/08 01:41:44;;;;;;;0.38;0.38;;;21.20;66.90;;;;;;5025909;28;20056;-78
2023/08/08 01:44:10;;;;;;;1.00;0.50;;;21.20;66.90;;;;;;5007775;28;20037;-78
2023/08/08 01:46:36;;;;;;;1.30;0.55;;;21.20;67.80;;;;;;5008436;28;20061;-78
2023/08/08 01:49:02;;;;;;;0.70;0.47;;;21.20;66.80;;;;;;5006750;28;20029;-78
2023/08/08 01:51:27;;;;;;;0.43;0.43;;;21.20;66.90;;;;;;5023336;28;20061;-78
2023/08/08 01:53:53;;;;;;;0.38;0.30;;;21.20;66.80;;;;;;5023654;28;20048;-78
2023/08/08 01:56:18;;;;;;;0.40;0.40;;;21.20;67.70;;;;;;5008219;28;20041;-78
2023/08/08 01:58:44;;;;;;;0.65;0.45;;;21.20;67.00;;;;;;5024869;28;20052;-78
2023/08/08 02:01:09;;;;;;;1.60;0.40;;;21.20;67.10;;;;;;5023588;28;20050;-77
2023/08/08 02:03:35;;;;;;;0.65;0.30;;;21.20;66.90;;;;;;5008195;28;20037;-78
2023/08/08 02:06:00;;;;;;;0.68;0.68;;;21.20;67.60;;;;;;4990855;28;20059;-78
2023/08/08 02:08:26;;;;;;;0.85;0.38;;;21.20;66.80;;;;;;5007520;28;20041;-79
2023/08/08 02:10:52;;;;;;;0.40;0.40;;;21.20;66.90;;;;;;5023433;28;20095;-78
2023/08/08 02:13:17;;;;;;;0.47;0.30;;;21.20;66.80;;;;;;5023112;28;20520;-78
2023/08/08 02:15:43;;;;;;;1.83;0.57;;;21.20;66.80;;;;;;5024965;28;20067;-78
2023/08/08 02:18:10;;;;;;;0.30;0.30;;;21.20;66.90;;;;;;5023608;28;27049;-78
2023/08/08 02:20:36;;;;;;;0.50;0.38;;;21.20;66.70;;;;;;5024778;28;20063;-78
2023/08/08 02:23:02;;;;;;;0.52;0.43;;;21.20;66.70;;;;;;5019687;28;20534;-78
2023/08/08 02:25:27;;;;;;;0.45;0.22;;;21.20;66.70;;;;;;5024324;28;20482;-79
2023/08/08 02:27:53;;;;;;;0.52;0.45;;;21.20;66.70;;;;;;5005068;28;20053;-78
2023/08/08 02:30:18;;;;;;;0.68;0.43;;;21.20;66.80;;;;;;5021954;28;20037;-78
2023/08/08 02:32:44;;;;;;;0.80;0.40;;;21.20;66.80;;;;;;5024906;28;20056;-78
2023/08/08 02:35:10;;;;;;;0.65;0.38;;;21.20;66.80;;;;;;5005698;28;20058;-77
2023/08/08 02:37:35;;;;;;;0.50;0.40;;;21.20;66.90;;;;;;5039841;28;20499;-78
2023/08/08 02:40:01;;;;;;;1.42;0.50;;;21.10;66.90;;;;;;5019074;28;20056;-78
2023/08/08 02:42:26;;;;;;;0.75;0.50;;;21.20;66.70;;;;;;5022639;28;20148;-78
2023/08/08 02:44:52;;;;;;;0.80;0.63;;;21.20;66.60;;;;;;5024742;28;20465;-78
2023/08/08 02:47:17;;;;;;;1.10;0.40;;;21.20;66.60;;;;;;5023333;28;20140;-79
2023/08/08 02:49:43;;;;;;;1.05;0.65;;;21.20;66.60;;;;;;5023918;28;20088;-79
2023/08/08 02:52:08;;;;;;;0.60;0.30;;;21.20;66.60;;;;;;4987498;28;20042;-78
2023/08/08 02:54:34;;;;;;;0.50;0.50;;;21.10;66.60;;;;;;5023703;28;20404;-79
2023/08/08 02:57:00;;;;;;;1.05;0.68;;;21.20;66.50;;;;;;5024687;28;20091;-78
2023/08/08 02:59:25;;;;;;;1.25;0.40;;;21.20;66.60;;;;;;5023104;28;20116;-78
2023/08/08 03:01:51;;;;;;;0.85;0.38;;;21.10;66.50;;;;;;5022586;28;20034;-79
2023/08/08 03:04:16;;;;;;;0.82;0.40;;;21.20;66.60;;;;;;5004337;28;20046;-78
2023/08/08 03:06:42;;;;;;;0.40;0.38;;;21.10;66.60;;;;;;5007040;28;20038;-78
2023/08/08 03:09:07;;;;;;;0.65;0.43;;;21.20;66.70;;;;;;5024038;28;20045;-78
2023/08/08 03:11:33;;;;;;;0.40;0.30;;;21.20;66.70;;;;;;5024478;28;20576;-79
2023/08/08 03:13:59;;;;;;;0.40;0.40;;;21.10;66.70;;;;;;5024939;28;20057;-79
2023/08/08 03:16:24;;;;;;;0.85;0.75;;;21.10;66.60;;;;;;5023075;28;20079;-79
2023/08/08 03:18:50;;;;;;;0.57;0.30;;;21.10;66.60;;;;;;5024340;28;20136;-78
2023/08/08 03:21:15;;;;;;;0.93;0.57;;;21.20;66.70;;;;;;5005722;28;20045;-79
2023/08/08 03:23:41;;;;;;;0.40;0.40;;;21.10;66.70;;;;;;5025042;28;20191;-78
2023/08/08 03:26:07;;;;;;;0.30;0.30;;;21.10;66.60;;;;;;5021811;28;20041;-79
2023/08/08 03:28:32;;;;;;;0.35;0.35;;;21.10;66.70;;;;;;5004974;28;20045;-78
2023/08/08 03:30:58;;;;;;;0.45;0.38;;;21.10;66.60;;;;;;5003376;28;20100;-78
2023/08/08 03:33:23;;;;;;;0.43;0.40;;;21.10;66.60;;;;;;5022749;28;20126;-79
2023/08/08 03:35:49;;;;;;;0.38;0.30;;;21.10;66.70;;;;;;5028632;28;20056;-79
2023/08/08 03:38:15;;;;;;;0.40;0.40;;;21.10;66.60;;;;;;5025721;28;20362;-78
2023/08/08 03:40:40;;;;;;;0.40;0.30;;;21.10;66.70;;;;;;5027532;28;20037;-79
2023/08/08 03:43:06;;;;;;;1.23;0.40;;;21.10;67.10;;;;;;5008789;28;20033;-78
2023/08/08 03:45:31;;;;;;;0.38;0.38;;;21.10;66.70;;;;;;5026727;28;20041;-79
2023/08/08 03:47:57;;;;;;;0.55;0.52;;;21.10;66.80;;;;;;5026822;28;20076;-79
2023/08/08 03:50:22;;;;;;;0.52;0.40;;;21.10;66.70;;;;;;5010746;28;20057;-79
2023/08/08 03:52:48;;;;;;;0.50;0.45;;;21.10;66.80;;;;;;5027129;28;20072;-79
2023/08/08 03:55:13;;;;;;;1.02;0.50;;;21.10;67.60;;;;;;5026677;28;20075;-78
2023/08/08 03:57:39;;;;;;;0.73;0.60;;;21.10;66.70;;;;;;5025506;28;20050;-79
2023/08/08 04:00:08;;;;;;;0.90;0.35;;;21.10;66.70;;;;;;5026871;28;20576;-79
2023/08/08 04:02:33;;;;;;;1.13;0.40;;;21.10;66.70;;;;;;5026411;28;20180;-79
2023/08/08 04:04:59;;;;;;;0.82;0.60;;;21.10;66.70;;;;;;5025900;28;20124;-79
2023/08/08 04:07:24;;;;;;;0.45;0.45;;;21.10;66.70;;;;;;5026324;28;20045;-78
2023/08/08 04:09:50;;;;;;;0.52;0.40;;;21.10;66.70;;;;;;5026756;28;20046;-79
2023/08/08 04:12:15;;;;;;;0.38;0.30;;;21.10;67.50;;;;;;5026501;28;20225;-78
2023/08/08 04:14:41;;;;;;;0.47;0.38;;;21.10;66.80;;;;;;5027537;28;20385;-79
2023/08/08 04:17:06;;;;;;;0.40;0.40;;;21.10;66.90;;;;;;5009017;28;20045;-79
2023/08/08 04:19:32;;;;;;;0.40;0.40;;;21.00;66.90;;;;;;5022051;28;20046;-79
2023/08/08 04:21:58;;;;;;;0.57;0.50;;;21.10;66.80;;;;;;5009696;28;20132;-78
2023/08/08 04:24:23;;;;;;;0.60;0.40;;;21.10;66.80;;;;;;5026196;28;20052;-78
2023/08/08 04:26:49;;;;;;;1.00;0.40;;;21.10;66.70;;;;;;5009569;28;20045;-78
2023/08/08 04:29:14;;;;;;;0.70;0.50;;;21.10;66.70;;;;;;5025620;28;20044;-78
2023/08/08 04:31:40;;;;;;;0.55;0.45;;;21.10;66.70;;;;;;5026197;28;20048;-79
2023/08/08 04:34:05;;;;;;;0.95;0.60;;;21.00;66.70;;;;;;5026692;28;20103;-79
2023/08/08 04:36:31;;;;;;;0.60;0.50;;;21.10;66.90;;;;;;5025223;28;20045;-79
2023/08/08 04:38:57;;;;;;;0.47;0.40;;;21.00;66.60;;;;;;5008661;28;20030;-79
2023/08/08 04:41:22;;;;;;;0.40;0.30;;;21.10;66.80;;;;;;5025539;28;20030;-79
2023/08/08 04:43:48;;;;;;;1.15;0.60;;;21.10;66.60;;;;;;5025606;28;20034;-79
2023/08/08 04:46:13;;;;;;;1.17;0.68;;;21.10;66.60;;;;;;5021853;28;20526;-79
2023/08/08 04:48:39;;;;;;;0.50;0.40;;;21.10;66.70;;;;;;5024766;28;20042;-79
2023/08/08 04:51:05;;;;;;;0.40;0.30;;;21.10;66.50;;;;;;5026180;28;20041;-79
2023/08/08 04:53:30;;;;;;;0.40;0.40;;;21.00;66.50;;;;;;5026328;28;20041;-78
2023/08/08 04:55:56;;;;;;;0.30;0.30;;;21.10;66.60;;;;;;5022330;28;20037;-78
2023/08/08 04:58:21;;;;;;;0.50;0.50;;;21.00;66.50;;;;;;4990485;28;20133;-78
2023/08/08 05:00:47;;;;;;;0.40;0.40;;;21.00;66.50;;;;;;5025670;28;20483;-78
2023/08/08 05:03:13;;;;;;;0.88;0.50;;;21.10;66.60;;;;;;5009811;28;20056;-79
2023/08/08 05:05:38;;;;;;;0.50;0.35;;;21.00;66.50;;;;;;5026673;28;20034;-79
2023/08/08 05:08:04;;;;;;;0.55;0.32;;;21.10;66.50;;;;;;5024970;28;20081;-79
2023/08/08 05:10:31;;;;;;;0.40;0.40;;;21.10;66.50;;;;;;5006919;28;20044;-78
2023/08/08 05:12:57;;;;;;;0.63;0.43;;;21.00;66.40;;;;;;5026222;28;20049;-79
2023/08/08 05:15:22;;;;;;;0.40;0.30;;;21.10;66.50;;;;;;5052443;28;20045;-78
2023/08/08 05:17:48;;;;;;;0.60;0.40;;;21.10;66.50;;;;;;5027813;28;20418;-79
2023/08/08 05:20:13;;;;;;;0.98;0.43;;;21.00;66.40;;;;;;5024731;28;20072;-79
2023/08/08 05:22:39;;;;;;;0.95;0.52;;;21.00;66.40;;;;;;5007143;28;20037;-78
2023/08/08 05:25:05;;;;;;;0.68;0.32;;;21.00;66.30;;;;;;5010909;28;20486;-79
2023/08/08 05:27:33;;;;;;;0.60;0.40;;;21.00;66.40;;;;;;4754939;28;10000453;-78
2023/08/08 05:29:58;;;;;;;0.45;0.40;;;21.00;66.30;;;;;;5021149;28;20326;-79
2023/08/08 05:32:24;;;;;;;0.40;0.30;;;21.00;66.30;;;;;;5021123;28;20033;-78
2023/08/08 05:34:51;;;;;;;0.88;0.60;;;21.00;66.30;;;;;;5021339;28;20400;-78
2023/08/08 05:37:16;;;;;;;0.50;0.50;;;21.00;66.50;;;;;;5021173;28;20607;-78
2023/08/08 05:39:42;;;;;;;0.32;0.32;;;21.00;66.60;;;;;;5019551;28;20502;-75
2023/08/08 05:42:07;;;;;;;0.40;0.40;;;21.00;66.50;;;;;;5021515;28;20049;-75
2023/08/08 05:44:33;;;;;;;0.73;0.50;;;21.00;66.50;;;;;;5019797;28;20056;-75
2023/08/08 05:46:58;;;;;;;0.73;0.50;;;21.00;66.50;;;;;;5020538;28;20041;-75
2023/08/08 05:49:24;;;;;;;0.52;0.47;;;21.00;66.50;;;;;;5021196;28;20037;-75
2023/08/08 05:51:50;;;;;;;0.85;0.52;;;21.00;66.50;;;;;;5018934;28;20511;-75
2023/08/08 05:54:15;;;;;;;0.68;0.30;;;21.00;66.50;;;;;;5021305;28;20034;-75
2023/08/08 05:56:41;;;;;;;1.10;0.40;;;21.00;66.50;;;;;;5019552;28;20334;-75
2023/08/08 05:59:06;;;;;;;0.85;0.82;;;21.00;66.50;;;;;;5020465;28;20101;-76
2023/08/08 06:01:33;;;;;;;0.88;0.50;;;21.10;66.60;;;;;;5017825;28;20029;-75
2023/08/08 06:03:59;;;;;;;0.73;0.65;;;20.90;66.10;;;;;;5021492;28;20254;-75
2023/08/08 06:06:26;;;;;;;2.08;0.90;;;20.70;66.20;;;;;;5020036;28;21013;-76
2023/08/08 06:08:51;;;;;;;2.05;0.85;;;20.60;66.80;;;;;;5021341;28;20064;-76
2023/08/08 06:11:17;;;;;;;1.67;1.15;;;20.60;66.50;;;;;;5003968;28;20038;-76
2023/08/08 06:13:43;;;;;;;1.10;0.73;;;20.50;66.30;;;;;;5018471;28;20068;-75
2023/08/08 06:16:09;;;;;;;2.78;1.17;;;20.40;66.90;;;;;;5020390;28;20518;-75
2023/08/08 06:18:35;;;;;;;1.08;0.77;;;20.40;66.90;;;;;;5018820;28;20033;-75
2023/08/08 06:21:00;;;;;;;1.98;0.75;;;20.40;66.90;;;;;;5022289;28;20052;-75
2023/08/08 06:23:26;;;;;;;1.42;0.93;;;20.40;66.80;;;;;;5003646;28;20045;-76
2023/08/08 06:25:51;;;;;;;2.60;0.90;;;20.30;66.70;;;;;;5018698;28;20414;-76
2023/08/08 06:28:17;;;;;;;3.72;0.73;;;20.30;67.10;;;;;;4984258;28;20107;-76
2023/08/08 06:30:42;;;;;;;1.45;0.65;;;20.20;67.20;;;;;;5019890;28;20041;-76
2023/08/08 06:33:08;;;;;;;1.80;1.30;;;20.20;67.40;;;;;;5003311;28;20033;-75
2023/08/08 06:35:34;;;;;;;1.48;0.90;;;20.10;67.50;;;;;;5018762;28;20033;-76
2023/08/08 06:37:59;;;;;;;1.88;1.13;;;20.20;67.50;;;;;;5015646;28;20510;-75
2023/08/08 06:40:25;;;;;;;1.35;0.70;;;20.20;67.20;;;;;;5018415;28;20582;-75
2023/08/08 06:42:50;;;;;;;1.30;1.10;;;20.20;66.90;;;;;;5020490;28;20396;-75
2023/08/08 06:45:16;;;;;;;1.88;0.65;;;20.20;67.20;;;;;;5021347;28;20034;-75
2023/08/08 06:47:42;;;;;;;1.42;0.85;;;20.30;67.10;;;;;;5021604;28;20529;-75
2023/08/08 06:50:08;;;;;;;2.03;0.70;;;20.20;67.50;;;;;;5001351;28;20495;-76
2023/08/08 06:52:33;;;;;;;2.08;1.00;;;20.10;68.20;;;;;;5017737;28;20488;-76
2023/08/08 06:54:59;;;;;;;1.10;0.73;;;20.10;67.60;;;;;;5004450;28;20056;-76
2023/08/08 06:57:24;;;;;;;1.20;0.77;;;20.20;67.90;;;;;;5022799;28;20049;-76
2023/08/08 06:59:52;;;;;;;1.65;0.73;;;20.30;67.80;;;;;;5025037;28;20053;-76
2023/08/08 07:02:19;;;;;;;0.60;0.57;;;20.40;67.60;;;;;;5026513;28;20060;-76
2023/08/08 07:04:44;;;;;;;1.48;0.80;;;20.50;67.80;;;;;;5022525;28;20103;-76
2023/08/08 07:07:10;;;;;;;0.93;0.63;;;20.50;68.00;;;;;;5024070;28;20041;-76
2023/08/08 07:09:37;;;;;;;2.10;1.02;;;20.50;68.00;;;;;;5027848;28;20049;-76
2023/08/08 07:12:03;;;;;;;3.00;1.13;;;20.60;68.30;;;;;;5027953;28;20080;-76
2023/08/08 07:14:29;;;;;;;1.98;0.88;;;20.60;68.60;;;;;;5027076;28;20115;-76
2023/08/08 07:16:55;;;;;;;0.98;0.82;;;20.60;68.80;;;;;;5027998;28;20076;-76
2023/08/08 07:19:21;;;;;;;1.42;0.82;;;20.60;68.60;;;;;;5026636;28;20041;-76
2023/08/08 07:21:46;;;;;;;1.05;0.60;;;20.60;68.50;;;;;;5028908;28;20042;-76
2023/08/08 07:24:12;;;;;;;0.75;0.68;;;20.60;68.60;;;;;;5027493;28;20045;-76
2023/08/08 07:26:38;;;;;;;1.35;0.73;;;20.60;68.80;;;;;;5028079;28;20088;-76
2023/08/08 07:29:05;;;;;;;1.48;0.60;;;20.60;68.60;;;;;;5027256;28;20151;-76
2023/08/08 07:31:31;;;;;;;1.10;0.90;;;20.70;68.40;;;;;;5027265;28;20037;-76
2023/08/08 07:33:57;;;;;;;0.70;0.63;;;20.70;68.40;;;;;;5027040;28;20407;-76
2023/08/08 07:36:22;;;;;;;1.15;0.90;;;20.70;68.70;;;;;;5026740;28;20865;-76
2023/08/08 07:38:48;;;;;;;1.10;0.60;;;20.70;68.50;;;;;;5028362;28;20056;-76
2023/08/08 07:41:13;;;;;;;1.55;0.88;;;20.70;68.60;;;;;;5026135;28;20038;-76
2023/08/08 07:43:39;;;;;;;1.65;0.85;;;20.70;68.70;;;;;;5026243;28;20037;-76
2023/08/08 07:46:05;;;;;;;1.20;0.70;;;20.70;68.80;;;;;;5028222;28;20087;-76
2023/08/08 07:48:31;;;;;;;0.65;0.65;;;20.70;68.80;;;;;;5007613;28;20132;-76
2023/08/08 07:50:56;;;;;;;0.75;0.75;;;20.70;68.90;;;;;;5027612;28;20132;-76
2023/08/08 07:53:22;;;;;;;2.88;1.17;;;20.70;68.90;;;;;;5028492;28;20033;-76
2023/08/08 07:55:47;;;;;;;1.45;0.88;;;20.70;68.90;;;;;;5026134;28;20054;-76
2023/08/08 07:58:13;;;;;;;0.70;0.70;;;20.70;68.90;;;;;;5024670;28;20033;-76
2023/08/08 08:00:39;;;;;;;1.02;0.60;;;20.70;68.90;;;;;;5026414;28;20033;-76
2023/08/08 08:03:05;;;;;;;0.75;0.50;;;20.70;68.80;;;;;;5027790;28;20037;-76
2023/08/08 08:05:31;;;;;;;0.47;0.40;;;20.70;68.80;;;;;;5026278;28;20087;-76
2023/08/08 08:07:56;;;;;;;1.42;0.50;;;20.80;68.90;;;;;;5026064;28;20049;-76
2023/08/08 08:10:22;;;;;;;2.00;0.70;;;20.80;68.90;;;;;;5008795;28;20458;-76
2023/08/08 08:12:47;;;;;;;0.70;0.68;;;20.80;69.00;;;;;;5025919;28;20088;-76
2023/08/08 08:15:13;;;;;;;0.80;0.80;;;20.80;69.80;;;;;;5026796;28;20132;-76
2023/08/08 08:17:38;;;;;;;0.60;0.60;;;20.70;68.90;;;;;;5027804;28;20060;-76
2023/08/08 08:20:10;;;;;;;0.77;0.60;;;20.80;68.90;;;;;;5024015;28;20076;-76
2023/08/08 08:22:36;;;;;;;0.65;0.40;;;20.80;68.80;;;;;;5024910;28;20034;-76
2023/08/08 08:25:02;;;;;;;0.90;0.68;;;20.80;68.80;;;;;;5026298;28;20060;-76
2023/08/08 08:27:28;;;;;;;0.70;0.47;;;20.80;68.80;;;;;;5025272;28;20037;-76
2023/08/08 08:29:53;;;;;;;0.50;0.50;;;20.80;68.70;;;;;;5026440;28;20045;-76
2023/08/08 08:32:19;;;;;;;0.70;0.50;;;20.80;68.80;;;;;;5025869;28;20512;-76
2023/08/08 08:34:45;;;;;;;0.98;0.70;;;20.80;68.80;;;;;;5025943;28;20045;-76
2023/08/08 08:37:11;;;;;;;1.40;0.77;;;20.80;68.70;;;;;;5025762;28;20252;-76
2023/08/08 08:39:36;;;;;;;0.80;0.60;;;20.80;68.70;;;;;;5025747;28;20120;-76
2023/08/08 08:42:04;;;;;;;0.82;0.57;;;20.90;68.80;;;;;;5027022;28;20044;-76
2023/08/08 08:44:31;;;;;;;0.85;0.50;;;20.90;68.80;;;;;;5026341;28;20569;-76
2023/08/08 08:47:00;;;;;;;1.35;0.47;;;20.90;68.40;;;;;;5025656;28;20084;-76
2023/08/08 08:49:25;;;;;;;1.95;0.88;;;20.90;68.40;;;;;;5022830;28;20055;-76
2023/08/08 08:51:51;;;;;;;1.42;0.60;;;21.00;68.10;;;;;;5025251;28;20128;-76
2023/08/08 08:54:16;;;;;;;0.75;0.57;;;20.90;68.50;;;;;;5050264;28;20034;-76
2023/08/08 08:56:42;;;;;;;0.70;0.70;;;20.90;68.20;;;;;;5024830;28;20203;-76
2023/08/08 08:59:08;;;;;;;1.27;0.50;;;20.90;68.40;;;;;;5026934;28;20041;-76
2023/08/08 09:01:33;;;;;;;1.88;0.60;;;20.90;67.60;;;;;;5025376;28;20037;-76
2023/08/08 09:03:59;;;;;;;0.50;0.50;;;21.00;67.40;;;;;;5025606;28;20113;-76
2023/08/08 09:06:24;;;;;;;1.40;0.50;;;20.90;67.60;;;;;;5025056;28;20604;-76
2023/08/08 09:08:50;;;;;;;0.60;0.50;;;21.00;67.60;;;;;;5025119;28;20060;-76
2023/08/08 09:11:15;;;;;;;0.57;0.57;;;21.00;68.00;;;;;;5027075;28;20053;-76
2023/08/08 09:13:41;;;;;;;0.68;0.50;;;21.00;67.50;;;;;;5022928;28;20095;-76
2023/08/08 09:16:08;;;;;;;1.45;0.77;;;21.00;67.40;;;;;;5026655;28;20060;-76
2023/08/08 09:18:34;;;;;;;0.80;0.70;;;21.00;67.70;;;;;;5024653;28;20053;-77
2023/08/08 09:20:59;;;;;;;0.50;0.40;;;21.00;67.30;;;;;;5025862;28;20045;-76
2023/08/08 09:23:25;;;;;;;0.98;0.70;;;21.00;67.10;;;;;;5025498;28;20038;-76
2023/08/08 09:25:50;;;;;;;0.45;0.45;;;21.00;67.00;;;;;;5024321;28;20088;-76
2023/08/08 09:28:16;;;;;;;0.98;0.77;;;21.10;67.00;;;;;;5024606;28;20041;-76
2023/08/08 09:30:42;;;;;;;0.65;0.60;;;21.10;67.60;;;;;;5023590;28;20049;-76
2023/08/08 09:33:08;;;;;;;1.17;0.60;;;21.10;66.90;;;;;;5026989;28;20175;-76
2023/08/08 09:35:33;;;;;;;0.52;0.52;;;21.10;67.00;;;;;;5024335;28;20136;-76
2023/08/08 09:37:59;;;;;;;1.00;0.55;;;21.00;67.00;;;;;;5007167;28;20491;-76
2023/08/08 09:40:24;;;;;;;0.93;0.75;;;21.00;67.00;;;;;;5025249;28;20142;-76
2023/08/08 09:42:53;;;;;;;0.75;0.60;;;21.00;67.00;;;;;;5023951;28;20507;-76
2023/08/08 09:45:19;;;;;;;0.57;0.50;;;21.00;66.70;;;;;;5024898;28;20076;-76
2023/08/08 09:47:45;;;;;;;1.83;0.50;;;21.10;66.90;;;;;;5025584;28;20123;-76
2023/08/08 09:50:10;;;;;;;0.60;0.60;;;21.10;66.80;;;;;;5023815;28;20037;-76
2023/08/08 09:52:38;;;;;;;0.70;0.68;;;21.10;66.60;;;;;;5024893;28;20078;-76
2023/08/08 09:55:04;;;;;;;0.73;0.50;;;21.10;66.60;;;;;;5024211;28;20400;-76
2023/08/08 09:57:30;;;;;;;0.60;0.40;;;21.10;66.60;;;;;;5024473;28;20040;-76
2023/08/08 09:59:55;;;;;;;0.40;0.40;;;21.10;67.50;;;;;;5024509;28;20050;-76
2023/08/08 10:02:21;;;;;;;0.50;0.50;;;21.10;66.70;;;;;;5025176;28;20049;-76
2023/08/08 10:04:47;;;;;;;0.68;0.65;;;21.10;66.50;;;;;;5022702;28;20054;-76
2023/08/08 10:07:12;;;;;;;0.50;0.50;;;21.10;66.50;;;;;;5023151;28;20119;-76
2023/08/08 10:09:38;;;;;;;0.60;0.60;;;21.10;66.50;;;;;;5023617;28;20531;-76
2023/08/08 10:12:05;;;;;;;0.60;0.60;;;21.10;66.50;;;;;;5025082;28;20128;-76
2023/08/08 10:14:31;;;;;;;0.43;0.40;;;21.20;66.50;;;;;;5023468;28;20046;-76
2023/08/08 10:16:57;;;;;;;0.68;0.65;;;21.10;66.60;;;;;;5005443;28;20201;-76
2023/08/08 10:19:23;;;;;;;1.08;0.40;;;21.10;66.50;;;;;;5023258;28;20165;-76
2023/08/08 10:21:48;;;;;;;0.45;0.40;;;21.20;66.40;;;;;;5024204;28;20049;-76
2023/08/08 10:24:14;;;;;;;0.63;0.63;;;21.20;66.40;;;;;;5024018;28;20041;-76
2023/08/08 10:27:00;;;;;;;1.25;0.60;;;21.20;66.40;;;;;;5021765;28;20118;-77
2023/08/08 10:29:26;;;;;;;0.43;0.43;;;21.20;66.40;;;;;;5025428;28;20037;-76
2023/08/08 10:31:53;;;;;;;1.23;0.45;;;21.20;67.00;;;;;;4668658;28;10000555;-76
2023/08/08 10:34:20;;;;;;;0.93;0.60;;;21.20;66.30;;;;;;5018727;28;20048;-76
2023/08/08 10:36:49;;;;;;;0.93;0.63;;;21.20;69.90;;;;;;5014973;28;20068;-77
2023/08/08 10:39:17;;;;;;;0.50;0.50;;;21.20;67.10;;;;;;5030350;28;20133;-76
2023/08/08 10:41:49;;;;;;;0.68;0.50;;;21.20;66.00;;;;;;5020739;28;20503;-76
2023/08/08 10:44:22;;;;;;;0.65;0.52;;;21.30;66.00;;;;;;5001600;28;20041;-76
2023/08/08 10:46:47;;;;;;;0.30;0.30;;;21.30;65.60;;;;;;5001301;28;20053;-76
2023/08/08 10:49:14;;;;;;;1.02;0.50;;;21.30;65.30;;;;;;5003632;28;20050;-77
2023/08/08 10:51:45;;;;;;;0.45;0.43;;;21.30;64.90;;;;;;5019609;28;20049;-77
2023/08/08 10:54:18;;;;;;;0.40;0.40;;;21.30;66.10;;;;;;5019252;28;20851;-76
2023/08/08 10:56:51;;;;;;;0.57;0.57;;;21.30;66.10;;;;;;5042465;28;20548;-77
2023/08/08 10:59:18;;;;;;;0.50;0.50;;;21.30;66.30;;;;;;5049886;28;20536;-76
2023/08/08 11:01:49;;;;;;;0.50;0.40;;;21.30;66.30;;;;;;5015587;28;20405;-76
2023/08/08 11:04:15;;;;;;;0.35;0.30;;;21.30;66.00;;;;;;5018270;28;20059;-76
2023/08/08 11:06:41;;;;;;;0.82;0.50;;;21.30;65.90;;;;;;5019467;28;20371;-76
2023/08/08 11:09:07;;;;;;;0.30;0.30;;;21.40;66.10;;;;;;5001905;28;20064;-76
2023/08/08 11:11:39;;;;;;;0.65;0.52;;;21.30;65.90;;;;;;5020515;28;20082;-76
2023/08/08 11:14:18;;;;;;;1.17;0.60;;;21.30;65.80;;;;;;5020255;28;20053;-75
2023/08/08 11:16:44;;;;;;;0.30;0.30;;;21.40;65.80;;;;;;5019059;28;20067;-76
2023/08/08 11:19:10;;;;;;;1.30;0.65;;;21.40;65.80;;;;;;5020152;28;20132;-76
2023/08/08 11:21:37;;;;;;;0.38;0.38;;;21.40;65.70;;;;;;5020264;28;20617;-76
2023/08/08 11:24:04;;;;;;;0.93;0.45;;;21.40;65.70;;;;;;5016343;28;20499;-76
2023/08/08 11:26:31;;;;;;;0.90;0.47;;;21.40;65.70;;;;;;5019917;28;22334;-76
2023/08/08 11:29:00;;;;;;;0.60;0.50;;;21.40;65.70;;;;;;5019473;28;20052;-77
2023/08/08 11:31:26;;;;;;;0.60;0.40;;;21.40;65.60;;;;;;5018213;28;20128;-77
2023/08/08 11:33:52;;;;;;;0.40;0.40;;;21.40;65.60;;;;;;5014170;28;20045;-76
2023/08/08 11:36:18;;;;;;;0.63;0.43;;;21.40;65.60;;;;;;5021392;28;20147;-76
2023/08/08 11:38:44;;;;;;;0.50;0.50;;;21.40;65.60;;;;;;5016695;28;20426;-76
2023/08/08 11:41:10;;;;;;;0.28;0.20;;;21.50;65.60;;;;;;5019025;28;20052;-75
2023/08/08 11:43:37;;;;;;;0.50;0.50;;;21.40;65.60;;;;;;5018726;28;20057;-75
2023/08/08 11:46:03;;;;;;;0.40;0.40;;;21.40;65.80;;;;;;5004270;28;20042;-76
2023/08/08 11:48:32;;;;;;;1.55;0.82;;;21.40;65.60;;;;;;5021089;28;20041;-76
2023/08/08 11:50:57;;;;;;;1.33;0.52;;;21.50;65.30;;;;;;5020696;28;20046;-76
2023/08/08 11:53:23;;;;;;;0.70;0.50;;;21.40;65.20;;;;;;5025487;28;20426;-76
2023/08/08 11:55:48;;;;;;;1.23;0.57;;;21.40;65.20;;;;;;5007605;28;20044;-76
2023/08/08 11:58:14;;;;;;;0.40;0.40;;;21.40;65.30;;;;;;5025325;28;20045;-76
2023/08/08 12:00:40;;;;;;;1.38;0.50;;;21.40;65.30;;;;;;5027423;28;20045;-76
2023/08/08 12:03:07;;;;;;;0.45;0.45;;;21.50;65.20;;;;;;5009352;28;20179;-76
2023/08/08 12:05:37;;;;;;;0.30;0.30;;;21.50;65.20;;;;;;5025719;28;20303;-76
2023/08/08 12:08:05;;;;;;;0.40;0.40;;;21.50;65.10;;;;;;5033069;28;20050;-77
2023/08/08 12:10:30;;;;;;;1.77;0.50;;;21.50;65.10;;;;;;5023370;28;20029;-76
2023/08/08 12:12:58;;;;;;;0.50;0.40;;;21.50;65.10;;;;;;5021006;28;20037;-75
2023/08/08 12:15:24;;;;;;;0.50;0.50;;;21.50;65.10;;;;;;5027770;28;20052;-76
2023/08/08 12:17:49;;;;;;;0.50;0.50;;;21.50;65.60;;;;;;5007775;28;20042;-76
2023/08/08 12:20:15;;;;;;;1.42;0.93;;;21.50;65.60;;;;;;5024897;28;20034;-76
2023/08/08 12:22:40;;;;;;;0.47;0.47;;;21.50;65.80;;;;;;5026994;28;20278;-75
2023/08/08 12:25:08;;;;;;;0.43;0.43;;;21.60;65.70;;;;;;4675493;28;9999851;-76
2023/08/08 12:27:33;;;;;;;0.40;0.30;;;21.60;65.80;;;;;;5022340;28;20049;-76
2023/08/08 12:29:59;;;;;;;0.40;0.40;;;21.60;65.20;;;;;;5005816;28;20057;-76
2023/08/08 12:32:26;;;;;;;0.57;0.57;;;21.60;65.50;;;;;;5021924;28;20052;-75
2023/08/08 12:34:52;;;;;;;0.40;0.40;;;21.50;65.40;;;;;;5022062;28;20128;-76
2023/08/08 12:37:17;;;;;;;0.50;0.50;;;21.60;65.50;;;;;;5018953;28;20411;-75
2023/08/08 12:39:43;;;;;;;0.52;0.52;;;21.60;65.50;;;;;;5022730;28;20046;-75